Time;durP1;ratioP1;P1;durP2;ratioP2;P2;SDS_P1;SDS_P2;PMS_P1;PMS_P2;Temp;Humidity;BMP_temperature;BMP_pressure;BME280_temperature;BME280_humidity;BME280_pressure;Samples;Min_cycle;Max_cycle;Signal;HPM_P1;HPM_P2
2023/05/22 00:01:15;;;;;;;13.23;10.20;;;;;;;;;;5115070;28;20472;-74
2023/05/22 00:03:42;;;;;;;15.47;10.57;;;;;;;;;;5115050;28;20869;-74
2023/05/22 00:06:10;;;;;;;12.87;10.97;;;;;;;;;;5115074;28;20824;-74
2023/05/22 00:08:38;;;;;;;19.50;13.03;;;;;;;;;;5115146;28;20845;-73
2023/05/22 00:11:05;;;;;;;13.40;11.13;;;;;;;;;;5114812;28;20508;-74
2023/05/22 00:13:33;;;;;;;18.13;10.80;;;;;;;;;;5114762;28;20469;-73
2023/05/22 00:16:00;;;;;;;18.00;12.10;;;;;;;;;;5114734;28;20465;-74
2023/05/22 00:18:27;;;;;;;12.97;11.50;;;;;;;;;;5114872;28;20452;-74
2023/05/22 00:20:54;;;;;;;17.97;11.70;;;;;;;;;;5114495;28;20446;-74
2023/05/22 00:23:23;;;;;;;13.63;11.33;;;;;;;;;;5114277;28;20478;-73
2023/05/22 00:25:50;;;;;;;13.57;10.80;;;;;;;;;;5114333;28;20541;-73
2023/05/22 00:28:17;;;;;;;14.60;10.93;;;;;;;;;;5114381;28;20450;-73
2023/05/22 00:30:45;;;;;;;15.77;11.60;;;;;;;;;;5114116;28;20481;-73
2023/05/22 00:33:12;;;;;;;14.87;10.97;;;;;;;;;;5113484;28;20474;-73
2023/05/22 00:35:39;;;;;;;14.07;12.20;;;;;;;;;;5113931;28;20445;-73
2023/05/22 00:38:06;;;;;;;12.47;10.93;;;;;;;;;;5114294;28;20454;-73
2023/05/22 00:40:34;;;;;;;13.87;11.53;;;;;;;;;;5114120;28;20450;-73
2023/05/22 00:43:07;;;;;;;13.70;11.93;;;;;;;;;;5114029;28;20480;-73
2023/05/22 00:45:34;;;;;;;12.37;11.10;;;;;;;;;;5113935;28;20943;-73
2023/05/22 00:48:02;;;;;;;14.43;12.87;;;;;;;;;;5113929;28;20503;-73
2023/05/22 00:50:30;;;;;;;15.90;12.00;;;;;;;;;;5113389;28;20484;-73
2023/05/22 00:52:57;;;;;;;16.10;12.23;;;;;;;;;;5113870;28;20556;-73
2023/05/22 00:55:24;;;;;;;15.23;13.50;;;;;;;;;;5113528;28;20452;-73
2023/05/22 00:57:52;;;;;;;14.43;11.27;;;;;;;;;;5113612;28;20544;-73
2023/05/22 01:00:19;;;;;;;16.87;13.17;;;;;;;;;;5113766;28;20849;-73
2023/05/22 01:02:46;;;;;;;17.30;12.97;;;;;;;;;;5113746;28;20480;-73
2023/05/22 01:05:16;;;;;;;27.83;13.17;;;;;;;;;;5112847;28;20457;-73
2023/05/22 01:07:44;;;;;;;15.93;12.43;;;;;;;;;;5113730;28;20955;-75
2023/05/22 01:10:11;;;;;;;18.90;14.00;;;;;;;;;;5113248;28;20478;-75
2023/05/22 01:12:43;;;;;;;15.37;11.90;;;;;;;;;;5113459;28;20457;-75
2023/05/22 01:15:16;;;;;;;16.23;12.70;;;;;;;;;;5113340;28;20465;-75
2023/05/22 01:17:47;;;;;;;14.37;11.47;;;;;;;;;;5113611;28;20453;-75
2023/05/22 01:20:21;;;;;;;15.17;12.93;;;;;;;;;;5113151;28;20854;-75
2023/05/22 01:23:01;;;;;;;15.57;12.53;;;;;;;;;;5112937;28;20466;-75
2023/05/22 01:25:36;;;;;;;15.30;11.60;;;;;;;;;;5113167;28;20461;-74
2023/05/22 01:28:09;;;;;;;16.30;12.17;;;;;;;;;;5113558;28;20456;-75
2023/05/22 01:30:50;;;;;;;15.20;12.80;;;;;;;;;;5113506;28;20485;-74
2023/05/22 01:33:18;;;;;;;21.70;13.40;;;;;;;;;;5113096;28;20896;-74
2023/05/22 01:35:47;;;;;;;20.43;14.00;;;;;;;;;;5113105;28;20449;-74
2023/05/22 01:38:16;;;;;;;14.43;12.10;;;;;;;;;;5113294;28;20458;-74
2023/05/22 01:40:44;;;;;;;23.87;13.60;;;;;;;;;;5113401;28;20464;-75
2023/05/22 01:43:11;;;;;;;17.13;12.40;;;;;;;;;;5112996;28;20488;-74
2023/05/22 01:45:39;;;;;;;15.60;11.67;;;;;;;;;;5113259;28;20862;-77
2023/05/22 01:48:07;;;;;;;18.43;12.77;;;;;;;;;;5113269;28;20450;-75
2023/05/22 01:50:35;;;;;;;18.10;14.17;;;;;;;;;;5112779;28;20849;-75
2023/05/22 01:53:07;;;;;;;17.80;12.60;;;;;;;;;;5113011;28;20477;-75
2023/05/22 01:55:39;;;;;;;23.37;13.07;;;;;;;;;;5112950;28;20449;-74
2023/05/22 01:58:21;;;;;;;20.07;12.33;;;;;;;;;;5113347;28;20954;-74
2023/05/22 02:00:50;;;;;;;14.97;11.70;;;;;;;;;;5113166;28;20442;-74
2023/05/22 02:03:20;;;;;;;20.80;14.00;;;;;;;;;;5112869;28;20508;-74
2023/05/22 02:05:49;;;;;;;20.37;13.40;;;;;;;;;;5112966;28;20458;-75
2023/05/22 02:08:20;;;;;;;19.23;12.87;;;;;;;;;;5113307;28;20855;-75
2023/05/22 02:10:49;;;;;;;17.30;14.23;;;;;;;;;;5112963;28;20580;-75
2023/05/22 02:13:16;;;;;;;21.27;14.90;;;;;;;;;;5112827;28;20478;-75
2023/05/22 02:15:45;;;;;;;23.20;15.90;;;;;;;;;;5112414;28;20946;-74
2023/05/22 02:18:12;;;;;;;21.17;13.63;;;;;;;;;;5116753;28;20456;-74
2023/05/22 02:20:41;;;;;;;18.87;14.37;;;;;;;;;;5116311;28;20452;-72
2023/05/22 02:23:09;;;;;;;19.70;14.27;;;;;;;;;;5116424;28;20473;-72
2023/05/22 02:25:36;;;;;;;19.07;14.80;;;;;;;;;;5116505;28;20926;-72
2023/05/22 02:28:03;;;;;;;21.93;15.70;;;;;;;;;;5116827;28;20953;-73
2023/05/22 02:30:31;;;;;;;21.40;13.80;;;;;;;;;;5116523;28;20489;-72
2023/05/22 02:32:59;;;;;;;25.17;15.20;;;;;;;;;;5116590;28;20506;-72
2023/05/22 02:35:26;;;;;;;21.57;14.47;;;;;;;;;;5115178;28;20492;-72
2023/05/22 02:37:55;;;;;;;21.40;14.70;;;;;;;;;;5116294;28;20442;-72
2023/05/22 02:40:22;;;;;;;18.90;15.30;;;;;;;;;;5116292;28;20942;-72
2023/05/22 02:42:49;;;;;;;19.70;14.70;;;;;;;;;;5116337;28;20485;-73
2023/05/22 02:45:16;;;;;;;25.70;13.33;;;;;;;;;;5116143;28;20454;-72
2023/05/22 02:47:43;;;;;;;19.10;15.23;;;;;;;;;;5116179;28;20450;-72
2023/05/22 02:50:10;;;;;;;23.10;15.53;;;;;;;;;;5116348;28;20477;-72
2023/05/22 02:52:38;;;;;;;22.40;14.20;;;;;;;;;;5116062;28;20444;-73
2023/05/22 02:55:07;;;;;;;20.90;15.17;;;;;;;;;;5116061;28;20957;-73
2023/05/22 02:57:34;;;;;;;17.23;14.37;;;;;;;;;;5116024;28;20492;-72
2023/05/22 03:00:02;;;;;;;26.70;15.13;;;;;;;;;;5116168;28;20445;-72
2023/05/22 03:02:31;;;;;;;17.90;13.33;;;;;;;;;;5115562;28;20446;-73
2023/05/22 03:04:58;;;;;;;28.17;15.63;;;;;;;;;;5115024;28;20574;-72
2023/05/22 03:07:28;;;;;;;28.67;17.87;;;;;;;;;;5115912;28;20926;-73
2023/05/22 03:09:55;;;;;;;22.60;15.47;;;;;;;;;;5115839;28;20437;-73
2023/05/22 03:12:23;;;;;;;17.00;14.37;;;;;;;;;;5115034;28;21032;-73
2023/05/22 03:14:50;;;;;;;23.67;15.50;;;;;;;;;;5115345;28;20465;-72
2023/05/22 03:17:18;;;;;;;23.80;16.83;;;;;;;;;;5115830;28;20454;-73
2023/05/22 03:19:46;;;;;;;19.80;14.63;;;;;;;;;;5115483;27;20992;-73
2023/05/22 03:22:13;;;;;;;24.40;15.17;;;;;;;;;;5115481;28;20446;-73
2023/05/22 03:24:40;;;;;;;16.93;13.90;;;;;;;;;;5114644;28;20469;-73
2023/05/22 03:27:07;;;;;;;21.47;14.83;;;;;;;;;;5114854;28;20446;-73
2023/05/22 03:29:35;;;;;;;18.70;13.30;;;;;;;;;;5115380;28;20514;-72
2023/05/22 03:32:03;;;;;;;18.47;14.30;;;;;;;;;;5115348;28;20525;-72
2023/05/22 03:34:31;;;;;;;22.00;15.33;;;;;;;;;;5114443;28;20473;-72
2023/05/22 03:36:58;;;;;;;24.13;14.33;;;;;;;;;;5115333;28;20462;-73
2023/05/22 03:39:25;;;;;;;19.53;14.80;;;;;;;;;;5114890;28;20796;-73
2023/05/22 03:41:52;;;;;;;22.87;14.63;;;;;;;;;;5115324;28;20449;-72
2023/05/22 03:44:19;;;;;;;21.40;15.37;;;;;;;;;;5114953;28;20481;-73
2023/05/22 03:46:47;;;;;;;17.93;14.10;;;;;;;;;;5115373;28;20453;-73
2023/05/22 03:49:15;;;;;;;23.43;14.43;;;;;;;;;;5115193;28;20823;-73
2023/05/22 03:51:42;;;;;;;24.23;14.17;;;;;;;;;;5114896;28;20481;-73
2023/05/22 03:54:09;;;;;;;19.40;15.23;;;;;;;;;;5114247;28;20470;-73
2023/05/22 03:56:36;;;;;;;22.30;16.67;;;;;;;;;;5115152;28;20452;-74
2023/05/22 03:59:03;;;;;;;18.63;14.57;;;;;;;;;;5115015;28;20445;-75
2023/05/22 04:01:30;;;;;;;21.37;15.23;;;;;;;;;;5114872;28;20457;-75
2023/05/22 04:03:58;;;;;;;22.50;13.80;;;;;;;;;;5113833;28;20895;-75
2023/05/22 04:06:25;;;;;;;16.37;13.30;;;;;;;;;;5115068;28;20449;-75
2023/05/22 04:08:53;;;;;;;19.90;14.50;;;;;;;;;;5114662;28;20457;-75
2023/05/22 04:11:21;;;;;;;19.47;14.37;;;;;;;;;;5114556;28;20485;-75
2023/05/22 04:13:50;;;;;;;16.07;13.70;;;;;;;;;;5114241;28;20473;-75
2023/05/22 04:16:17;;;;;;;17.43;12.63;;;;;;;;;;5114461;28;20943;-75
2023/05/22 04:18:44;;;;;;;17.63;12.87;;;;;;;;;;5114529;28;20897;-75
2023/05/22 04:21:13;;;;;;;16.33;12.00;;;;;;;;;;5114246;28;20450;-75
2023/05/22 04:23:42;;;;;;;16.80;12.20;;;;;;;;;;5113676;28;20469;-75
2023/05/22 04:26:09;;;;;;;13.03;10.13;;;;;;;;;;5114346;28;20453;-75
2023/05/22 04:28:36;;;;;;;12.57;9.90;;;;;;;;;;5114276;28;20442;-75
2023/05/22 04:31:06;;;;;;;11.90;9.90;;;;;;;;;;5114355;28;20482;-75
2023/05/22 04:33:34;;;;;;;12.43;10.20;;;;;;;;;;5114064;28;20588;-76
2023/05/22 04:36:01;;;;;;;12.60;9.43;;;;;;;;;;5114377;28;20446;-76
2023/05/22 04:38:30;;;;;;;12.23;9.77;;;;;;;;;;5113816;28;20506;-75
2023/05/22 04:40:59;;;;;;;10.63;9.43;;;;;;;;;;5113670;28;20441;-75
2023/05/22 04:43:26;;;;;;;12.50;9.90;;;;;;;;;;5113724;28;20862;-76
2023/05/22 04:45:55;;;;;;;10.87;9.50;;;;;;;;;;5114366;28;20935;-76
2023/05/22 04:48:22;;;;;;;9.70;8.80;;;;;;;;;;5114094;28;20455;-76
2023/05/22 04:50:49;;;;;;;9.53;8.63;;;;;;;;;;5114193;28;20449;-76
2023/05/22 04:53:16;;;;;;;12.80;8.33;;;;;;;;;;5113441;28;20518;-76
2023/05/22 04:55:45;;;;;;;9.20;8.13;;;;;;;;;;5113618;28;20466;-76
2023/05/22 04:58:12;;;;;;;11.83;9.20;;;;;;;;;;5117365;27;20456;-76
2023/05/22 05:00:39;;;;;;;8.97;7.90;;;;;;;;;;5134349;27;20448;-76
2023/05/22 05:03:07;;;;;;;9.70;8.50;;;;;;;;;;5134305;27;20968;-76
2023/05/22 05:05:34;;;;;;;9.70;8.90;;;;;;;;;;5134396;27;20505;-77
2023/05/22 05:08:01;;;;;;;11.77;9.10;;;;;;;;;;5134598;27;20449;-76
2023/05/22 05:10:28;;;;;;;8.80;7.97;;;;;;;;;;5134279;27;20447;-76
2023/05/22 05:12:56;;;;;;;8.57;7.77;;;;;;;;;;5134015;27;20495;-77
2023/05/22 05:15:23;;;;;;;8.77;7.43;;;;;;;;;;5133350;27;20460;-77
2023/05/22 05:17:51;;;;;;;8.33;7.53;;;;;;;;;;5134409;27;20455;-76
2023/05/22 05:20:18;;;;;;;8.57;7.77;;;;;;;;;;5134074;27;20804;-76
2023/05/22 05:22:45;;;;;;;9.97;8.97;;;;;;;;;;5134515;27;20472;-77
2023/05/22 05:25:12;;;;;;;7.90;7.20;;;;;;;;;;5133806;27;20459;-76
2023/05/22 05:27:39;;;;;;;9.90;7.60;;;;;;;;;;5133948;27;20453;-76
2023/05/22 05:30:09;;;;;;;8.10;7.33;;;;;;;;;;5134113;27;20938;-77
2023/05/22 05:32:39;;;;;;;9.00;8.07;;;;;;;;;;5131645;27;20583;-77
2023/05/22 05:35:07;;;;;;;8.67;7.77;;;;;;;;;;5113309;28;20505;-77
2023/05/22 05:37:34;;;;;;;9.67;7.67;;;;;;;;;;5113321;28;20450;-76
2023/05/22 05:40:03;;;;;;;9.83;7.47;;;;;;;;;;5113447;28;20826;-76
2023/05/22 05:42:30;;;;;;;7.87;7.20;;;;;;;;;;5113201;28;20449;-76
2023/05/22 05:44:57;;;;;;;10.67;8.07;;;;;;;;;;5113355;28;20445;-76
2023/05/22 05:47:28;;;;;;;8.03;7.33;;;;;;;;;;5111595;27;20484;-76
2023/05/22 05:49:56;;;;;;;8.30;7.60;;;;;;;;;;5113237;28;20445;-76
2023/05/22 05:52:25;;;;;;;8.13;6.97;;;;;;;;;;5116823;28;20524;-76
2023/05/22 05:54:53;;;;;;;9.07;7.40;;;;;;;;;;5117164;28;20492;-76
2023/05/22 05:57:20;;;;;;;7.37;6.80;;;;;;;;;;5117087;28;20460;-76
2023/05/22 05:59:47;;;;;;;7.73;7.13;;;;;;;;;;5117494;28;20890;-76
2023/05/22 06:02:15;;;;;;;7.33;6.53;;;;;;;;;;5117488;28;20930;-76
2023/05/22 06:04:47;;;;;;;7.23;6.53;;;;;;;;;;5116683;28;20566;-76
2023/05/22 06:07:14;;;;;;;7.80;7.10;;;;;;;;;;5117256;28;20513;-77
2023/05/22 06:09:41;;;;;;;8.37;7.50;;;;;;;;;;5116941;28;20870;-76
2023/05/22 06:12:11;;;;;;;7.17;6.47;;;;;;;;;;5117146;28;20507;-77
2023/05/22 06:14:38;;;;;;;9.80;6.20;;;;;;;;;;5116570;28;20511;-76
2023/05/22 06:17:07;;;;;;;7.47;6.87;;;;;;;;;;5116824;28;20970;-74
2023/05/22 06:19:35;;;;;;;7.90;6.67;;;;;;;;;;5117047;28;20543;-74
2023/05/22 06:22:03;;;;;;;7.47;6.80;;;;;;;;;;5116525;28;20477;-77
2023/05/22 06:24:32;;;;;;;7.63;6.93;;;;;;;;;;5116697;28;20472;-75
2023/05/22 06:27:00;;;;;;;6.93;6.33;;;;;;;;;;5116938;28;20930;-75
2023/05/22 06:29:27;;;;;;;7.63;6.93;;;;;;;;;;5116738;28;20603;-75
2023/05/22 06:31:54;;;;;;;7.57;6.77;;;;;;;;;;5116827;28;20492;-74
2023/05/22 06:34:22;;;;;;;9.50;5.87;;;;;;;;;;5116487;28;20473;-74
2023/05/22 06:36:50;;;;;;;6.83;6.23;;;;;;;;;;5116944;28;20500;-77
2023/05/22 06:39:18;;;;;;;9.30;6.30;;;;;;;;;;5116647;28;20445;-77
2023/05/22 06:41:46;;;;;;;10.33;6.20;;;;;;;;;;5116677;28;20445;-77
2023/05/22 06:44:13;;;;;;;7.30;6.50;;;;;;;;;;5116309;28;20468;-77
2023/05/22 06:46:40;;;;;;;6.73;6.13;;;;;;;;;;5110255;28;20970;-77
2023/05/22 06:49:07;;;;;;;6.83;6.07;;;;;;;;;;5108596;28;20476;-74
2023/05/22 06:51:34;;;;;;;7.27;6.70;;;;;;;;;;5115119;28;20459;-75
2023/05/22 06:54:03;;;;;;;6.73;6.13;;;;;;;;;;5114717;28;20477;-75
2023/05/22 06:56:31;;;;;;;10.20;6.57;;;;;;;;;;5113447;28;20504;-75
2023/05/22 06:58:58;;;;;;;7.87;7.00;;;;;;;;;;5114643;28;20833;-75
2023/05/22 07:01:25;;;;;;;6.80;6.30;;;;;;;;;;5114660;28;20805;-75
2023/05/22 07:03:52;;;;;;;7.47;6.77;;;;;;;;;;5113974;28;20473;-75
2023/05/22 07:06:19;;;;;;;7.20;6.57;;;;;;;;;;5114597;28;20452;-75
2023/05/22 07:08:46;;;;;;;6.63;6.13;;;;;;;;;;5114743;28;20207;-75
2023/05/22 07:11:14;;;;;;;7.17;5.63;;;;;;;;;;5114459;28;20218;-75
2023/05/22 07:13:42;;;;;;;6.90;6.30;;;;;;;;;;5114306;28;20231;-75
2023/05/22 07:16:09;;;;;;;6.50;5.90;;;;;;;;;;5114452;28;20211;-75
2023/05/22 07:18:38;;;;;;;6.30;5.67;;;;;;;;;;5114360;28;20203;-76
2023/05/22 07:21:05;;;;;;;6.90;6.30;;;;;;;;;;5114016;28;20589;-75
2023/05/22 07:23:32;;;;;;;6.33;5.80;;;;;;;;;;5114175;28;20300;-75
2023/05/22 07:26:00;;;;;;;6.40;5.60;;;;;;;;;;5114689;28;20462;-76
2023/05/22 07:28:27;;;;;;;6.40;5.90;;;;;;;;;;5114347;28;20456;-76
2023/05/22 07:30:56;;;;;;;5.43;5.03;;;;;;;;;;5114295;28;20456;-76
2023/05/22 07:33:23;;;;;;;5.97;5.27;;;;;;;;;;5114331;28;20646;-76
2023/05/22 07:35:50;;;;;;;6.33;5.80;;;;;;;;;;5114715;28;20453;-76
2023/05/22 07:38:17;;;;;;;6.30;5.80;;;;;;;;;;5114351;28;20204;-76
2023/05/22 07:40:45;;;;;;;11.63;5.57;;;;;;;;;;5114407;28;20207;-76
2023/05/22 07:43:14;;;;;;;5.07;4.77;;;;;;;;;;5113996;28;20461;-76
2023/05/22 07:45:41;;;;;;;6.77;4.83;;;;;;;;;;5113834;28;20461;-76
2023/05/22 07:48:10;;;;;;;5.80;5.20;;;;;;;;;;5114251;28;20490;-76
2023/05/22 07:50:37;;;;;;;6.03;5.40;;;;;;;;;;5113843;28;20459;-75
2023/05/22 07:53:05;;;;;;;5.53;5.00;;;;;;;;;;5113601;28;20485;-75
2023/05/22 07:55:32;;;;;;;5.43;4.97;;;;;;;;;;5113532;28;20242;-75
2023/05/22 07:58:02;;;;;;;4.40;4.10;;;;;;;;;;5112143;28;20203;-76
2023/05/22 08:00:30;;;;;;;5.97;4.93;;;;;;;;;;5113284;28;20479;-76
2023/05/22 08:02:57;;;;;;;5.63;5.23;;;;;;;;;;5113583;28;20839;-76
2023/05/22 08:05:25;;;;;;;5.20;4.80;;;;;;;;;;5113480;27;20480;-76
2023/05/22 08:07:52;;;;;;;5.20;4.80;;;;;;;;;;5113608;28;20457;-76
2023/05/22 08:10:19;;;;;;;5.03;4.63;;;;;;;;;;5113724;28;20211;-76
2023/05/22 08:12:46;;;;;;;5.97;5.37;;;;;;;;;;5113114;28;20511;-75
2023/05/22 08:15:14;;;;;;;5.23;4.83;;;;;;;;;;5113097;28;20218;-76
2023/05/22 08:17:41;;;;;;;7.70;4.97;;;;;;;;;;5113366;28;20451;-74
2023/05/22 08:20:09;;;;;;;7.13;5.83;;;;;;;;;;5113369;28;20459;-74
2023/05/22 08:22:37;;;;;;;7.40;4.90;;;;;;;;;;5113838;28;20517;-75
2023/05/22 08:25:05;;;;;;;5.43;4.93;;;;;;;;;;5113458;28;20429;-75
2023/05/22 08:27:32;;;;;;;6.93;5.87;;;;;;;;;;5113299;28;20459;-75
2023/05/22 08:29:59;;;;;;;7.83;5.07;;;;;;;;;;5113179;28;20429;-74
2023/05/22 08:32:26;;;;;;;6.83;6.07;;;;;;;;;;5113073;28;20490;-75
2023/05/22 08:34:53;;;;;;;8.20;5.70;;;;;;;;;;5112885;28;20456;-74
2023/05/22 08:37:20;;;;;;;6.40;5.90;;;;;;;;;;5113109;28;20449;-75
2023/05/22 08:39:49;;;;;;;6.60;5.50;;;;;;;;;;5112907;28;20453;-75
2023/05/22 08:42:16;;;;;;;6.87;6.27;;;;;;;;;;5113135;28;20446;-75
2023/05/22 08:44:43;;;;;;;5.90;5.40;;;;;;;;;;5112926;28;20476;-74
2023/05/22 08:47:12;;;;;;;6.53;5.67;;;;;;;;;;5112654;28;20452;-74
2023/05/22 08:49:40;;;;;;;7.17;5.67;;;;;;;;;;5112785;28;20528;-75
2023/05/22 08:52:11;;;;;;;5.73;5.23;;;;;;;;;;5112703;28;20460;-75
2023/05/22 08:54:41;;;;;;;7.00;6.30;;;;;;;;;;5112923;28;20484;-74
2023/05/22 08:57:10;;;;;;;8.87;5.53;;;;;;;;;;5113141;28;20499;-74
2023/05/22 08:59:39;;;;;;;5.80;5.20;;;;;;;;;;5112496;28;20518;-74
2023/05/22 09:02:07;;;;;;;8.53;7.70;;;;;;;;;;5112734;28;20854;-74
2023/05/22 09:04:34;;;;;;;7.07;5.90;;;;;;;;;;5112418;28;20473;-74
2023/05/22 09:07:04;;;;;;;12.23;6.80;;;;;;;;;;5112761;28;20452;-74
2023/05/22 09:09:31;;;;;;;7.00;6.30;;;;;;;;;;5112337;28;20547;-75
2023/05/22 09:11:58;;;;;;;5.83;5.33;;;;;;;;;;5112484;28;20472;-74
2023/05/22 09:14:27;;;;;;;6.27;5.60;;;;;;;;;;5112202;28;20565;-74
2023/05/22 09:16:54;;;;;;;6.27;5.00;;;;;;;;;;5112364;28;20449;-74
2023/05/22 09:19:21;;;;;;;5.63;5.10;;;;;;;;;;5112424;28;20491;-74
2023/05/22 09:21:49;;;;;;;6.43;5.93;;;;;;;;;;5112328;28;20448;-74
2023/05/22 09:24:16;;;;;;;6.30;5.77;;;;;;;;;;5112065;28;20472;-74
2023/05/22 09:26:43;;;;;;;7.53;6.83;;;;;;;;;;5111941;28;20497;-74
2023/05/22 09:29:10;;;;;;;8.50;6.10;;;;;;;;;;5112351;28;20456;-74
2023/05/22 09:31:45;;;;;;;7.30;5.70;;;;;;;;;;5112447;28;20449;-74
2023/05/22 09:34:14;;;;;;;7.53;6.83;;;;;;;;;;5112225;28;20489;-76
2023/05/22 09:36:41;;;;;;;7.10;6.10;;;;;;;;;;5112772;28;20457;-75
2023/05/22 09:39:09;;;;;;;7.60;6.50;;;;;;;;;;5113886;28;20457;-78
2023/05/22 09:41:37;;;;;;;7.17;6.43;;;;;;;;;;5113808;28;20495;-76
2023/05/22 09:44:12;;;;;;;7.67;6.97;;;;;;;;;;5113318;28;20461;-75
2023/05/22 09:46:40;;;;;;;5.67;5.23;;;;;;;;;;5113444;28;20497;-75
2023/05/22 09:49:09;;;;;;;6.63;6.13;;;;;;;;;;5113526;28;20926;-75
2023/05/22 09:51:36;;;;;;;6.03;5.43;;;;;;;;;;5113614;28;20453;-76
2023/05/22 09:54:05;;;;;;;7.13;6.40;;;;;;;;;;5112954;28;20492;-75
2023/05/22 09:56:36;;;;;;;9.00;6.60;;;;;;;;;;5111331;28;20458;-74
2023/05/22 09:59:04;;;;;;;7.07;6.50;;;;;;;;;;5111566;28;20601;-74
2023/05/22 10:01:32;;;;;;;5.97;5.40;;;;;;;;;;5111904;28;20464;-75
2023/05/22 10:04:00;;;;;;;5.93;5.43;;;;;;;;;;5111932;28;20856;-77
2023/05/22 10:06:28;;;;;;;10.13;5.80;;;;;;;;;;5113952;28;20487;-76
2023/05/22 10:08:59;;;;;;;5.60;5.20;;;;;;;;;;5114468;28;20449;-76
2023/05/22 10:11:28;;;;;;;6.30;5.70;;;;;;;;;;5113936;28;20422;-75
2023/05/22 10:13:57;;;;;;;6.93;6.33;;;;;;;;;;5113755;28;20500;-76
2023/05/22 10:16:24;;;;;;;6.70;6.10;;;;;;;;;;5114278;28;20430;-76
2023/05/22 10:18:52;;;;;;;5.70;5.20;;;;;;;;;;5113929;28;20496;-76
2023/05/22 10:21:20;;;;;;;6.40;5.90;;;;;;;;;;5113663;28;20464;-76
2023/05/22 10:23:50;;;;;;;6.50;5.90;;;;;;;;;;5113707;28;20809;-76
2023/05/22 10:26:18;;;;;;;7.37;6.40;;;;;;;;;;5113737;28;20730;-76
2023/05/22 10:28:47;;;;;;;6.60;6.00;;;;;;;;;;5113841;28;20449;-76
2023/05/22 10:31:19;;;;;;;14.00;6.43;;;;;;;;;;5114495;28;20456;-76
2023/05/22 10:33:49;;;;;;;6.87;6.17;;;;;;;;;;5114791;28;20985;-76
2023/05/22 10:36:20;;;;;;;6.00;5.50;;;;;;;;;;5115294;28;20472;-76
2023/05/22 10:39:00;;;;;;;7.10;6.50;;;;;;;;;;5117492;28;20437;-77
2023/05/22 10:41:27;;;;;;;6.57;5.87;;;;;;;;;;5119146;28;20433;-77
2023/05/22 10:43:57;;;;;;;7.37;6.50;;;;;;;;;;5118274;28;20465;-77
2023/05/22 10:46:24;;;;;;;7.33;6.67;;;;;;;;;;5117711;27;20525;-78
2023/05/22 10:48:53;;;;;;;5.93;5.43;;;;;;;;;;5119705;28;20455;-78
2023/05/22 10:51:21;;;;;;;7.60;6.77;;;;;;;;;;5120988;28;20881;-78
2023/05/22 10:53:53;;;;;;;5.90;5.40;;;;;;;;;;5121747;28;20492;-80
2023/05/22 10:56:20;;;;;;;7.23;6.53;;;;;;;;;;5120749;28;20906;-78
2023/05/22 10:58:56;;;;;;;7.60;6.90;;;;;;;;;;5120677;28;20437;-78
2023/05/22 11:01:25;;;;;;;6.77;5.80;;;;;;;;;;5119415;28;21038;-77
2023/05/22 11:03:53;;;;;;;5.53;5.03;;;;;;;;;;5117602;28;20978;-77
2023/05/22 11:06:33;;;;;;;6.87;5.97;;;;;;;;;;5116322;28;20510;-75
2023/05/22 11:09:17;;;;;;;7.67;5.70;;;;;;;;;;5116182;28;20449;-76
2023/05/22 11:11:44;;;;;;;5.93;5.43;;;;;;;;;;5116539;28;20469;-75
2023/05/22 11:14:12;;;;;;;7.37;6.67;;;;;;;;;;5115825;28;20496;-74
2023/05/22 11:16:39;;;;;;;6.67;6.07;;;;;;;;;;5115829;28;20453;-74
2023/05/22 11:19:07;;;;;;;6.00;5.50;;;;;;;;;;5115820;28;20449;-74
2023/05/22 11:21:35;;;;;;;7.00;5.90;;;;;;;;;;5115219;28;20453;-74
2023/05/22 11:24:04;;;;;;;6.93;6.33;;;;;;;;;;5115536;28;20461;-75
2023/05/22 11:26:31;;;;;;;8.73;7.70;;;;;;;;;;5115630;28;20535;-75
2023/05/22 11:29:00;;;;;;;7.50;6.43;;;;;;;;;;5116016;28;20919;-75
2023/05/22 11:31:27;;;;;;;5.73;5.23;;;;;;;;;;5115411;28;20452;-75
2023/05/22 11:33:54;;;;;;;6.20;5.43;;;;;;;;;;5115229;28;20489;-75
2023/05/22 11:36:21;;;;;;;8.70;6.00;;;;;;;;;;5115366;28;20552;-76
2023/05/22 11:38:48;;;;;;;7.13;6.47;;;;;;;;;;5115565;28;20956;-76
2023/05/22 11:41:17;;;;;;;5.63;5.13;;;;;;;;;;5115395;28;20934;-75
2023/05/22 11:43:44;;;;;;;5.50;5.03;;;;;;;;;;5115174;28;20470;-75
2023/05/22 11:46:12;;;;;;;5.50;4.93;;;;;;;;;;5115197;28;20452;-75
2023/05/22 11:48:43;;;;;;;6.43;5.90;;;;;;;;;;5114836;28;20514;-75
2023/05/22 11:51:10;;;;;;;6.10;5.50;;;;;;;;;;5115126;28;20508;-75
2023/05/22 11:53:37;;;;;;;6.50;5.87;;;;;;;;;;5114748;28;20564;-74
2023/05/22 11:56:05;;;;;;;6.17;5.60;;;;;;;;;;5115033;28;20461;-74
2023/05/22 11:58:34;;;;;;;5.43;5.00;;;;;;;;;;5115074;28;20506;-74
2023/05/22 12:01:02;;;;;;;7.70;5.90;;;;;;;;;;5114829;28;20444;-75
2023/05/22 12:03:29;;;;;;;6.90;5.60;;;;;;;;;;5114260;28;20559;-75
2023/05/22 12:05:57;;;;;;;6.73;6.13;;;;;;;;;;5114822;28;20449;-75
2023/05/22 12:08:24;;;;;;;6.83;6.33;;;;;;;;;;5114849;28;20449;-75
2023/05/22 12:10:51;;;;;;;6.80;6.10;;;;;;;;;;5114810;28;20821;-75
2023/05/22 12:13:25;;;;;;;6.53;6.03;;;;;;;;;;5114579;28;20482;-75
2023/05/22 12:15:55;;;;;;;6.87;5.93;;;;;;;;;;5114482;28;20826;-76
2023/05/22 12:18:22;;;;;;;10.43;8.33;;;;;;;;;;5114794;28;20453;-75
2023/05/22 12:20:53;;;;;;;5.90;5.43;;;;;;;;;;5114268;28;20441;-74
2023/05/22 12:23:24;;;;;;;6.70;6.10;;;;;;;;;;5114579;27;20811;-75
2023/05/22 12:26:01;;;;;;;6.97;6.03;;;;;;;;;;5114518;28;20449;-75
2023/05/22 12:28:28;;;;;;;7.07;5.57;;;;;;;;;;5114453;28;20449;-74
2023/05/22 12:30:58;;;;;;;9.40;6.20;;;;;;;;;;5114411;28;20450;-75
2023/05/22 12:33:28;;;;;;;6.30;5.70;;;;;;;;;;5114244;28;20485;-75
2023/05/22 12:35:57;;;;;;;17.33;5.90;;;;;;;;;;5114337;28;20457;-75
2023/05/22 12:38:25;;;;;;;6.93;6.23;;;;;;;;;;5114255;28;20445;-75
2023/05/22 12:40:52;;;;;;;7.33;6.67;;;;;;;;;;5114394;28;20457;-75
2023/05/22 12:43:19;;;;;;;7.27;6.00;;;;;;;;;;5114177;28;20474;-75
2023/05/22 12:45:46;;;;;;;7.20;6.50;;;;;;;;;;5114071;28;20457;-75
2023/05/22 12:48:15;;;;;;;7.87;7.07;;;;;;;;;;5114128;28;20464;-75
2023/05/22 12:50:42;;;;;;;7.03;6.43;;;;;;;;;;5114030;28;20454;-76
2023/05/22 12:53:09;;;;;;;8.43;7.60;;;;;;;;;;5114643;28;20822;-76
2023/05/22 12:55:36;;;;;;;7.87;7.00;;;;;;;;;;5114526;28;20454;-76
2023/05/22 12:58:04;;;;;;;6.67;5.90;;;;;;;;;;5114361;28;20926;-76
2023/05/22 13:00:31;;;;;;;6.93;6.27;;;;;;;;;;5113082;28;20446;-75
2023/05/22 13:02:58;;;;;;;8.70;6.57;;;;;;;;;;5113955;28;20457;-75
2023/05/22 13:05:26;;;;;;;6.90;6.30;;;;;;;;;;5113497;28;20456;-76
2023/05/22 13:07:54;;;;;;;8.43;6.80;;;;;;;;;;5114651;28;20446;-77
2023/05/22 13:10:21;;;;;;;7.03;6.33;;;;;;;;;;5115272;28;20954;-77
2023/05/22 13:12:50;;;;;;;7.67;6.93;;;;;;;;;;5115207;28;20970;-77
2023/05/22 13:15:17;;;;;;;7.37;6.20;;;;;;;;;;5113970;28;20543;-76
2023/05/22 13:17:44;;;;;;;7.07;5.80;;;;;;;;;;5114830;28;20918;-76
2023/05/22 13:20:12;;;;;;;6.57;5.97;;;;;;;;;;5114006;28;20489;-76
2023/05/22 13:22:41;;;;;;;6.87;6.17;;;;;;;;;;5115339;28;20430;-76
2023/05/22 13:25:09;;;;;;;8.23;7.00;;;;;;;;;;5115259;28;20433;-77
2023/05/22 13:27:36;;;;;;;7.10;6.40;;;;;;;;;;5115263;28;20481;-76
2023/05/22 13:30:03;;;;;;;8.47;7.67;;;;;;;;;;5114885;28;20460;-78
2023/05/22 13:32:30;;;;;;;8.03;6.60;;;;;;;;;;5114380;28;20802;-77
2023/05/22 13:34:57;;;;;;;7.70;6.90;;;;;;;;;;5114243;28;20466;-77
2023/05/22 13:37:24;;;;;;;7.53;6.20;;;;;;;;;;5113950;28;20449;-76
2023/05/22 13:39:53;;;;;;;7.97;7.17;;;;;;;;;;5113857;28;20453;-76
2023/05/22 13:42:20;;;;;;;7.90;6.30;;;;;;;;;;5114354;28;20458;-76
2023/05/22 13:44:47;;;;;;;7.60;6.07;;;;;;;;;;5114227;28;20811;-76
2023/05/22 13:47:14;;;;;;;8.50;7.60;;;;;;;;;;5114041;28;20456;-76
2023/05/22 13:49:41;;;;;;;7.37;6.40;;;;;;;;;;5114282;28;20544;-76
2023/05/22 13:52:08;;;;;;;17.53;7.70;;;;;;;;;;5114103;28;20457;-76
2023/05/22 13:54:36;;;;;;;7.17;6.47;;;;;;;;;;5113709;28;20485;-76
2023/05/22 13:57:04;;;;;;;7.03;6.33;;;;;;;;;;5113631;28;20442;-76
2023/05/22 13:59:32;;;;;;;6.67;6.07;;;;;;;;;;5114033;28;20450;-76
2023/05/22 14:01:59;;;;;;;10.70;8.60;;;;;;;;;;5113756;28;20453;-76
2023/05/22 14:04:26;;;;;;;7.63;6.93;;;;;;;;;;5113830;28;20466;-76
2023/05/22 14:06:53;;;;;;;7.33;6.63;;;;;;;;;;5113799;28;20493;-76
2023/05/22 14:09:20;;;;;;;8.60;6.80;;;;;;;;;;5113421;28;20457;-76
2023/05/22 14:11:47;;;;;;;7.63;6.90;;;;;;;;;;5114905;28;20442;-76
2023/05/22 14:14:22;;;;;;;6.90;6.30;;;;;;;;;;5117427;28;20986;-76
2023/05/22 14:16:49;;;;;;;6.40;5.83;;;;;;;;;;5117849;28;20429;-76
2023/05/22 14:19:16;;;;;;;7.30;6.70;;;;;;;;;;5117737;28;20498;-76
2023/05/22 14:21:43;;;;;;;8.73;7.07;;;;;;;;;;5117793;28;20456;-76
2023/05/22 14:24:10;;;;;;;7.50;6.33;;;;;;;;;;5117698;28;20966;-76
2023/05/22 14:26:38;;;;;;;7.13;6.13;;;;;;;;;;5117474;28;20854;-75
2023/05/22 14:29:05;;;;;;;8.90;6.60;;;;;;;;;;5116828;27;20449;-74
2023/05/22 14:31:44;;;;;;;7.53;6.83;;;;;;;;;;5117100;28;20899;-74
2023/05/22 14:34:11;;;;;;;9.30;6.10;;;;;;;;;;5116845;28;20493;-74
2023/05/22 14:36:38;;;;;;;7.20;6.50;;;;;;;;;;5116736;28;20441;-74
2023/05/22 14:39:05;;;;;;;9.53;7.57;;;;;;;;;;5116498;28;20445;-73